Aérodrome :
LOGIN :

S'inscrire | Disclaimer

   EN    FR    IT 

 










Légende :    VFR   VFR Marginal   IFR   IFR Intensif   IFR Très Intensif
Visi : 
Plafond : 
>= 8 km
>= 3000ft
5 à 8 km
1000 à 3000 ft
1500m à 5 km
500 à 1000 ft
800 à 1500m
200 à 500 ft
< 800m
< 200 ft
Symboles :   Orages  Brouillard  Fortes neiges  Fortes précipitations  Vent > 20 kt
SIGMETs :   Divers  Orages  Givrage  Turbulence  Onde Orograph.  Cendres Volcan.







- Altitude de l'aérodrome : 194 ft
- Code IATA : LME
- Voir les cartes d'approche


LFRM - Le Mans

DERNIER METAR :
  • 132000Z AUTO 06007KT CAVOK 01/M02 Q1014

METARs EXPIRÉS :
  • 131930Z AUTO 06007KT CAVOK 01/M02 Q1014
  • 131900Z AUTO 06008KT CAVOK 01/M02 Q1013 NOSIG
  • 131830Z AUTO 06009KT CAVOK 02/M02 Q1013 NOSIG
  • 131800Z AUTO 07007KT CAVOK 02/M02 Q1013 NOSIG
  • 131730Z AUTO 07007KT 040V100 CAVOK 02/M02 Q1013 NOSIG

TAF TAF LFRM
Valide du 13 à 12h jusqu'au 14 à 12h UTC


131100Z 1312/1412 08010KT CAVOK
PROB40
TEMPO 1312/1318 BKN014
BECMG 1321/1324 06003KT
PROB30
TEMPO 1403/1409 BKN004
Pas de NOTAMs connus pour ce terrain.



MET'MAP, la Météo Aéronautique d'un coup d'oeil ! - Copyright ORBIFLY Décembre 2007 - Disclaimer

ORBIFLY MET'MAP TEAM :

Programmation & Développement : Alexandra Zaïnal
Conception & Développement : Baudouin d'Aumeries
Co-Programmation & Développement : Marc-Olivier Méhu
Soutien technique & logistique : Manuel Goepfert

Contact : metmap@orbifly.com




SOURCES & CREDITS :

   NOAA